createdAt,value
2018-02-13T00:00:02.892Z,13.73
2018-02-13T00:02:34.027Z,12.65
2018-02-13T00:05:02.080Z,14.40
2018-02-13T00:07:30.871Z,13.55
2018-02-13T00:10:00.959Z,12.60
2018-02-13T00:12:31.348Z,13.65
2018-02-13T00:14:59.423Z,14.82
2018-02-13T00:17:29.416Z,14.10
2018-02-13T00:19:58.904Z,13.15
2018-02-13T00:25:27.592Z,24.08
2018-02-13T00:27:56.596Z,19.35
2018-02-13T00:30:26.452Z,16.48
2018-02-13T00:33:04.621Z,14.10
2018-02-13T00:35:44.311Z,15.50
2018-02-13T00:38:15.306Z,12.63
2018-02-13T00:40:44.286Z,13.60
2018-02-13T00:43:17.016Z,13.55
2018-02-13T00:45:46.095Z,13.52
2018-02-13T00:48:16.096Z,14.10
2018-02-13T00:50:45.056Z,13.18
2018-02-13T00:53:13.467Z,13.30
2018-02-13T00:55:42.462Z,13.88
2018-02-13T00:58:11.421Z,14.07
2018-02-13T01:00:41.483Z,13.32
2018-02-13T01:03:10.340Z,14.65
2018-02-13T01:05:39.215Z,13.82
2018-02-13T01:08:08.291Z,14.15
2018-02-13T01:10:39.211Z,13.02
2018-02-13T01:13:09.231Z,14.40
2018-02-13T01:15:37.311Z,14.80
2018-02-13T01:18:15.519Z,13.45
2018-02-13T01:20:44.595Z,12.60
2018-02-13T01:23:13.695Z,13.25
2018-02-13T01:25:45.723Z,14.40
2018-02-13T01:28:13.777Z,12.82
2018-02-13T01:30:41.841Z,14.13
2018-02-13T01:33:10.863Z,13.02
2018-02-13T01:35:39.655Z,13.90
2018-02-13T01:38:12.367Z,12.73
2018-02-13T01:40:40.419Z,12.77
2018-02-13T01:43:14.347Z,13.60
2018-02-13T01:45:47.219Z,12.90
2018-02-13T01:48:15.267Z,12.88
2018-02-13T01:50:43.343Z,14.20
2018-02-13T01:53:12.335Z,14.52
2018-02-13T01:55:40.383Z,13.62
2018-02-13T01:58:10.211Z,13.48
2018-02-13T02:00:38.451Z,12.13
2018-02-13T02:03:07.319Z,12.63
2018-02-13T02:05:35.371Z,12.48
2018-02-13T02:08:03.471Z,13.20
2018-02-13T02:10:32.523Z,40.90
2018-02-13T02:13:01.547Z,25.25
2018-02-13T02:15:29.639Z,13.43
2018-02-13T02:17:58.718Z,13.27
2018-02-13T02:20:27.763Z,11.15
2018-02-13T02:23:01.696Z,12.23
2018-02-13T02:25:29.735Z,13.40
2018-02-13T02:27:57.747Z,9.88
2018-02-13T02:30:25.767Z,10.50
2018-02-13T02:32:53.895Z,11.45
2018-02-13T02:35:23.967Z,9.68
2018-02-13T02:37:53.935Z,9.45
2018-02-13T02:40:22.985Z,9.80
2018-02-13T02:43:05.647Z,9.82
2018-02-13T02:45:33.711Z,10.82
2018-02-13T02:48:01.739Z,11.65
2018-02-13T02:50:36.459Z,11.43
2018-02-13T02:53:04.558Z,10.70
2018-02-13T02:55:33.587Z,10.82
2018-02-13T02:58:07.239Z,12.23
2018-02-13T03:00:36.319Z,10.95
2018-02-13T03:03:07.674Z,10.30
2018-02-13T03:05:35.723Z,10.55
2018-02-13T03:08:03.811Z,11.52
2018-02-13T03:10:32.811Z,10.10
2018-02-13T03:13:00.879Z,11.00
2018-02-13T03:15:30.282Z,10.85
2018-02-13T03:17:58.362Z,11.90
2018-02-13T03:20:29.702Z,12.02
2018-02-13T03:23:03.998Z,12.55
2018-02-13T03:25:33.130Z,11.27
2018-02-13T03:28:02.159Z,11.20
2018-02-13T03:30:34.491Z,11.75
2018-02-13T03:33:13.050Z,12.77
2018-02-13T03:35:42.906Z,9.88
2018-02-13T03:38:15.376Z,11.05
2018-02-13T03:40:44.471Z,11.23
2018-02-13T03:43:14.435Z,11.85
2018-02-13T03:45:48.394Z,11.50
2018-02-13T03:48:20.959Z,11.15
2018-02-13T03:50:49.982Z,11.70
2018-02-13T03:53:18.022Z,10.45
2018-02-13T03:55:48.026Z,10.95
2018-02-13T03:58:16.067Z,12.07
2018-02-13T04:00:44.134Z,12.10
2018-02-13T04:03:13.198Z,11.02
2018-02-13T04:05:48.167Z,11.82
2018-02-13T04:08:21.878Z,11.75
2018-02-13T04:10:49.902Z,11.60
2018-02-13T04:13:17.942Z,11.35
2018-02-13T04:15:45.978Z,12.70
2018-02-13T04:18:14.807Z,13.38
2018-02-13T04:20:42.866Z,12.63
2018-02-13T04:23:14.362Z,11.73
2018-02-13T04:25:47.114Z,14.20
2018-02-13T04:28:15.198Z,14.30
2018-02-13T04:30:43.349Z,15.55
2018-02-13T04:33:13.402Z,15.65
2018-02-13T04:35:48.658Z,15.40
2018-02-13T04:38:16.698Z,14.85
2018-02-13T04:40:49.446Z,15.85
2018-02-13T04:43:17.469Z,15.80
2018-02-13T04:45:51.638Z,15.70
2018-02-13T04:48:19.669Z,15.10
2018-02-13T04:51:06.786Z,16.55
2018-02-13T04:53:35.622Z,14.50
2018-02-13T04:56:05.565Z,15.55
2018-02-13T04:58:38.357Z,14.60
2018-02-13T05:01:10.110Z,14.95
2018-02-13T05:03:38.137Z,14.38
2018-02-13T05:06:06.154Z,14.40
2018-02-13T05:08:40.358Z,14.35
2018-02-13T05:11:11.530Z,15.63
2018-02-13T05:13:42.274Z,15.30
2018-02-13T05:16:11.082Z,14.87
2018-02-13T05:18:45.240Z,14.82
2018-02-13T05:21:14.242Z,14.68
2018-02-13T05:23:44.270Z,12.32
2018-02-13T05:26:14.978Z,14.20
2018-02-13T05:28:54.541Z,12.32
2018-02-13T05:31:23.337Z,14.43
2018-02-13T05:34:09.558Z,13.98
2018-02-13T05:36:40.865Z,14.82
2018-02-13T05:39:08.918Z,16.17
2018-02-13T05:41:36.953Z,15.82
2018-02-13T05:44:04.993Z,17.00
2018-02-13T05:46:37.665Z,15.93
2018-02-13T05:49:06.477Z,16.75
2018-02-13T05:51:38.129Z,16.67
2018-02-13T05:54:08.101Z,16.05
2018-02-13T05:56:37.923Z,17.20
2018-02-13T05:59:05.941Z,14.45
2018-02-13T06:01:35.882Z,16.67
2018-02-13T06:04:03.934Z,16.75
2018-02-13T06:06:32.993Z,16.95
2018-02-13T06:09:06.473Z,16.77
2018-02-13T06:11:46.075Z,15.55
2018-02-13T06:14:14.101Z,17.27
2018-02-13T06:16:53.906Z,17.15
2018-02-13T06:19:27.005Z,16.23
2018-02-13T06:21:58.862Z,16.85
2018-02-13T06:27:30.241Z,15.50
2018-02-13T06:30:04.785Z,16.15
2018-02-13T06:35:34.489Z,16.60
2018-02-13T06:38:03.421Z,15.50
2018-02-13T06:40:38.230Z,14.63
2018-02-13T06:43:13.813Z,17.12
2018-02-13T06:45:54.589Z,15.88
2018-02-13T06:51:22.061Z,15.25
2018-02-13T06:56:56.313Z,14.73
2018-02-13T07:01:56.269Z,15.68
2018-02-13T07:04:28.213Z,15.35
2018-02-13T07:07:11.286Z,16.60
2018-02-13T07:10:03.753Z,16.45
2018-02-13T07:12:35.765Z,17.85
2018-02-13T07:15:04.601Z,18.80
2018-02-13T07:17:32.645Z,17.70
2018-02-13T07:20:04.097Z,18.05
2018-02-13T07:22:36.029Z,20.50
2018-02-13T07:28:02.469Z,18.15
2018-02-13T07:30:30.489Z,18.80
2018-02-13T07:33:03.456Z,18.70
2018-02-13T07:35:54.285Z,18.27
2018-02-13T07:41:30.969Z,18.67
2018-02-13T07:43:59.025Z,17.60
2018-02-13T07:46:51.186Z,16.62
2018-02-13T07:49:21.153Z,17.75
2018-02-13T07:51:51.837Z,16.85
2018-02-13T07:54:29.665Z,16.55
2018-02-13T07:57:12.930Z,16.83
2018-02-13T07:59:41.941Z,18.12
2018-02-13T08:02:10.741Z,17.55
2018-02-13T08:04:50.821Z,19.00
2018-02-13T08:07:28.013Z,19.02
2018-02-13T08:10:07.545Z,19.10
2018-02-13T08:12:35.582Z,20.70
2018-02-13T08:15:07.109Z,20.40
2018-02-13T08:17:39.041Z,21.40
2018-02-13T08:20:07.988Z,21.60
2018-02-13T08:22:48.197Z,21.30
2018-02-13T08:25:30.684Z,20.73
2018-02-13T08:27:58.713Z,22.15
2018-02-13T08:30:26.780Z,21.65
2018-02-13T08:33:13.085Z,21.60
2018-02-13T08:35:44.242Z,21.40
2018-02-13T08:38:12.273Z,21.75
2018-02-13T08:40:41.973Z,24.80
2018-02-13T08:43:12.685Z,26.48
2018-02-13T08:45:40.709Z,26.50
2018-02-13T08:48:08.732Z,26.50
2018-02-13T08:53:31.592Z,26.92
2018-02-13T08:56:07.192Z,28.15
2018-02-13T08:58:39.013Z,32.22
2018-02-13T09:01:10.885Z,29.80
2018-02-13T09:03:42.923Z,28.75
2018-02-13T09:06:14.880Z,31.45
2018-02-13T09:08:43.826Z,32.13
2018-02-13T09:11:13.736Z,32.05
2018-02-13T09:13:43.664Z,30.55
2018-02-13T09:16:11.680Z,32.00
2018-02-13T09:18:42.368Z,30.37
2018-02-13T09:21:12.304Z,31.17
2018-02-13T09:23:40.332Z,30.20
2018-02-13T09:26:10.256Z,30.83
2018-02-13T09:29:03.826Z,32.22
2018-02-13T09:31:33.804Z,30.05
2018-02-13T09:34:10.584Z,29.52
2018-02-13T09:36:41.964Z,30.25
2018-02-13T09:39:13.128Z,24.90
2018-02-13T09:42:00.140Z,25.48
2018-02-13T09:44:40.712Z,25.35
2018-02-13T09:47:08.732Z,26.05
2018-02-13T09:49:37.684Z,25.65
2018-02-13T09:52:13.260Z,26.50
2018-02-13T09:55:00.792Z,26.27
2018-02-13T09:57:30.524Z,24.67
2018-02-13T09:59:58.556Z,24.35
2018-02-13T10:02:26.580Z,25.05
2018-02-13T10:04:54.604Z,26.25
2018-02-13T10:10:27.204Z,18.95
2018-02-13T10:12:56.889Z,19.60
2018-02-13T10:15:26.904Z,18.75
2018-02-13T10:17:55.820Z,16.62
2018-02-13T10:20:27.328Z,15.23
2018-02-13T10:22:58.680Z,14.90
2018-02-13T10:25:30.560Z,11.95
2018-02-13T10:27:59.480Z,12.45
2018-02-13T10:30:38.848Z,12.95
2018-02-13T10:33:08.768Z,12.98
2018-02-13T10:35:36.785Z,12.27
2018-02-13T10:38:05.572Z,12.10
2018-02-13T10:40:34.360Z,12.13
2018-02-13T10:43:03.148Z,11.95
2018-02-13T10:45:32.924Z,11.15
2018-02-13T10:48:04.577Z,10.95
2018-02-13T10:50:38.456Z,11.23
2018-02-13T10:53:13.090Z,11.05
2018-02-13T10:55:42.116Z,10.30
2018-02-13T10:58:12.029Z,10.90
2018-02-13T11:00:45.668Z,9.70
2018-02-13T11:03:14.640Z,9.98
2018-02-13T11:05:49.469Z,10.77
2018-02-13T11:08:18.256Z,9.35
2018-02-13T11:10:47.052Z,10.57
2018-02-13T11:13:19.196Z,10.80
2018-02-13T11:15:59.572Z,10.80
2018-02-13T11:18:28.340Z,9.75
2018-02-13T11:20:57.260Z,9.95
2018-02-13T11:23:25.280Z,9.00
2018-02-13T11:25:57.408Z,9.30
2018-02-13T11:28:28.352Z,9.25
2018-02-13T11:31:02.896Z,8.93
2018-02-13T11:33:32.832Z,9.15
2018-02-13T11:36:03.988Z,8.75
2018-02-13T11:38:32.968Z,8.80
2018-02-13T11:41:01.056Z,7.95
2018-02-13T11:43:29.072Z,8.35
2018-02-13T11:46:14.740Z,8.77
2018-02-13T11:48:42.784Z,9.45
2018-02-13T11:51:12.468Z,8.70
2018-02-13T11:53:47.376Z,4.80
2018-02-13T11:56:16.392Z,3.95
2018-02-13T11:58:48.020Z,5.80
2018-02-13T12:01:16.052Z,6.10
2018-02-13T12:03:49.797Z,6.43
2018-02-13T12:06:18.808Z,7.15
2018-02-13T12:09:05.896Z,8.55
2018-02-13T12:11:33.915Z,7.12
2018-02-13T12:14:03.861Z,8.75
2018-02-13T12:16:33.559Z,8.10
2018-02-13T12:19:07.640Z,8.50
2018-02-13T12:21:35.671Z,7.65
2018-02-13T12:24:03.691Z,8.63
2018-02-13T12:26:32.672Z,6.45
2018-02-13T12:29:00.696Z,6.22
2018-02-13T12:31:36.684Z,7.20
2018-02-13T12:34:07.940Z,7.20
2018-02-13T12:36:36.856Z,8.15
2018-02-13T12:39:05.649Z,7.00
2018-02-13T12:41:33.671Z,6.10
2018-02-13T12:44:01.692Z,7.82
2018-02-13T12:46:29.732Z,6.68
2018-02-13T12:49:01.034Z,5.85
2018-02-13T12:51:29.015Z,6.50
2018-02-13T12:53:57.947Z,6.03
2018-02-13T12:56:27.944Z,5.47
2018-02-13T12:58:55.968Z,4.57
2018-02-13T13:01:24.956Z,6.87
2018-02-13T13:03:58.475Z,5.90
2018-02-13T13:06:31.715Z,6.00
2018-02-13T13:09:05.404Z,3.47
2018-02-13T13:11:41.740Z,3.70
2018-02-13T13:14:10.756Z,4.87
2018-02-13T13:16:42.036Z,3.50
2018-02-13T13:19:18.231Z,2.08
2018-02-13T13:21:46.272Z,1.50
2018-02-13T13:24:16.060Z,2.50
2018-02-13T13:26:46.056Z,1.60
2018-02-13T13:29:14.088Z,1.60
2018-02-13T13:31:43.040Z,2.08
2018-02-13T13:34:12.016Z,2.00
2018-02-13T13:36:45.844Z,3.37
2018-02-13T13:39:25.219Z,1.85
2018-02-13T13:41:53.279Z,1.95
2018-02-13T13:44:22.947Z,2.22
2018-02-13T13:46:51.951Z,2.47
2018-02-13T13:49:21.947Z,2.08
2018-02-13T13:51:51.988Z,2.08
2018-02-13T13:54:24.028Z,2.90
2018-02-13T13:56:52.047Z,3.05
2018-02-13T13:59:20.983Z,3.60
2018-02-13T14:01:49.912Z,4.03
2018-02-13T14:04:22.467Z,3.03
2018-02-13T14:06:57.900Z,3.80
2018-02-13T14:09:37.319Z,3.53
2018-02-13T14:12:08.991Z,3.45
2018-02-13T14:14:39.012Z,3.03
2018-02-13T14:17:10.660Z,3.20
2018-02-13T14:19:38.691Z,3.12
2018-02-13T14:22:07.635Z,2.58
2018-02-13T14:24:35.719Z,3.22
2018-02-13T14:27:10.291Z,3.58
2018-02-13T14:29:40.223Z,3.03
2018-02-13T14:32:11.271Z,3.35
2018-02-13T14:34:39.319Z,3.28
2018-02-13T14:37:13.907Z,2.92
2018-02-13T14:39:46.147Z,3.45
2018-02-13T14:42:18.607Z,3.20
2018-02-13T14:44:46.627Z,3.70
2018-02-13T14:47:15.575Z,4.07
2018-02-13T14:49:48.563Z,4.70
2018-02-13T14:52:22.359Z,6.72
2018-02-13T14:54:54.111Z,6.37
2018-02-13T14:57:24.135Z,6.60
2018-02-13T14:59:58.383Z,7.00
2018-02-13T15:05:37.623Z,6.37
2018-02-13T15:08:08.311Z,7.90
2018-02-13T15:10:37.211Z,6.93
2018-02-13T15:13:05.246Z,6.80
2018-02-13T15:15:45.795Z,6.20
2018-02-13T15:18:35.254Z,5.05
2018-02-13T15:21:15.343Z,5.25
2018-02-13T15:23:45.083Z,4.55
2018-02-13T15:26:18.758Z,3.87
2018-02-13T15:28:48.778Z,4.30
2018-02-13T15:31:37.519Z,2.90
2018-02-13T15:34:11.437Z,2.37
2018-02-13T15:36:39.503Z,3.85
2018-02-13T15:39:07.519Z,3.75
2018-02-13T15:41:38.999Z,3.58
2018-02-13T15:44:07.555Z,3.40
2018-02-13T15:46:39.379Z,3.17
2018-02-13T15:49:07.399Z,2.95
2018-02-13T15:51:41.611Z,3.90
2018-02-13T15:54:12.291Z,3.40
2018-02-13T15:56:45.023Z,3.78
2018-02-13T15:59:13.039Z,3.33
2018-02-13T16:01:42.947Z,3.95
2018-02-13T16:04:11.851Z,3.50
2018-02-13T16:06:39.863Z,4.30
2018-02-13T16:09:11.903Z,5.68
2018-02-13T16:11:39.923Z,5.35
2018-02-13T16:14:11.571Z,6.68
2018-02-13T16:16:39.598Z,5.25
2018-02-13T16:19:09.511Z,6.25
2018-02-13T16:21:38.235Z,7.55
2018-02-13T16:24:11.282Z,7.28
2018-02-13T16:27:02.527Z,6.82
2018-02-13T16:29:33.227Z,6.28
2018-02-13T16:32:05.706Z,7.20
2018-02-13T16:34:34.655Z,8.07
2018-02-13T16:37:02.685Z,7.60
2018-02-13T16:39:30.715Z,7.07
2018-02-13T16:42:00.628Z,8.25
2018-02-13T16:44:28.643Z,8.07
2018-02-13T16:47:04.147Z,6.68
2018-02-13T16:49:38.966Z,8.20
2018-02-13T16:52:12.003Z,8.95
2018-02-13T16:54:41.790Z,7.00
2018-02-13T16:57:11.727Z,6.80
2018-02-13T16:59:41.418Z,5.78
2018-02-13T17:02:11.334Z,7.85
2018-02-13T17:04:39.358Z,7.35
2018-02-13T17:07:10.491Z,7.00
2018-02-13T17:09:38.515Z,7.45
2018-02-13T17:12:07.430Z,9.13
2018-02-13T17:14:37.154Z,8.43
2018-02-13T17:17:11.491Z,7.72
2018-02-13T17:19:41.495Z,7.90
2018-02-13T17:22:09.519Z,9.57
2018-02-13T17:24:43.242Z,8.00
2018-02-13T17:27:26.402Z,6.95
2018-02-13T17:29:56.383Z,6.70
2018-02-13T17:32:39.823Z,9.20
2018-02-13T17:35:11.034Z,7.30
2018-02-13T17:37:40.950Z,9.07
2018-02-13T17:40:08.978Z,8.30
2018-02-13T17:42:38.898Z,10.23
2018-02-13T17:45:10.450Z,8.73
2018-02-13T17:47:40.398Z,8.75
2018-02-13T17:50:09.310Z,9.52
2018-02-13T17:52:38.102Z,7.43
2018-02-13T17:55:08.802Z,9.35
2018-02-13T17:57:38.930Z,10.52
2018-02-13T18:00:06.950Z,11.68
2018-02-13T18:02:34.998Z,11.27
2018-02-13T18:05:04.950Z,11.05
2018-02-13T18:07:56.870Z,13.50
2018-02-13T18:10:25.902Z,13.15
2018-02-13T18:13:06.026Z,12.10
2018-02-13T18:15:40.646Z,11.77
2018-02-13T18:18:09.722Z,14.70
2018-02-13T18:20:39.678Z,14.77
2018-02-13T18:23:12.050Z,17.25
2018-02-13T18:25:59.326Z,16.08
2018-02-13T18:28:40.182Z,16.08
2018-02-13T18:31:12.094Z,15.75
2018-02-13T18:33:50.074Z,16.20
2018-02-13T18:36:22.214Z,15.20
2018-02-13T18:39:10.990Z,14.35
2018-02-13T18:41:39.790Z,16.75
2018-02-13T18:44:07.810Z,14.43
2018-02-13T18:46:36.718Z,13.85
2018-02-13T18:49:08.238Z,13.40
2018-02-13T18:51:36.257Z,14.18
2018-02-13T18:54:04.307Z,13.85
2018-02-13T18:56:38.718Z,13.30
2018-02-13T18:59:11.597Z,15.48
2018-02-13T19:01:42.317Z,12.55
2018-02-13T19:04:11.314Z,11.77
2018-02-13T19:06:43.066Z,13.45
2018-02-13T19:09:26.437Z,11.95
2018-02-13T19:11:56.464Z,11.52
2018-02-13T19:14:24.497Z,11.48
2018-02-13T19:19:22.462Z,11.00
2018-02-13T19:21:50.493Z,11.75
2018-02-13T19:24:23.637Z,11.70
2018-02-13T19:26:54.385Z,12.65
2018-02-13T19:29:23.318Z,11.50
2018-02-13T19:31:58.566Z,13.52
2018-02-13T19:34:27.589Z,12.63
2018-02-13T19:37:00.269Z,12.98
2018-02-13T19:39:29.253Z,12.80
2018-02-13T19:42:01.130Z,10.57
2018-02-13T19:44:29.186Z,9.70
2018-02-13T19:46:57.238Z,10.77
2018-02-13T19:49:28.601Z,12.07
2018-02-13T19:51:56.650Z,10.73
2018-02-13T19:54:26.701Z,10.15
2018-02-13T19:56:55.519Z,9.20
2018-02-13T19:59:23.709Z,10.00
2018-02-13T20:01:55.652Z,10.25
2018-02-13T20:04:35.235Z,10.18
2018-02-13T20:07:12.654Z,11.25
2018-02-13T20:09:48.914Z,9.40
2018-02-13T20:12:18.922Z,9.35
2018-02-13T20:14:48.946Z,9.75
2018-02-13T20:17:18.958Z,9.45
2018-02-13T20:19:50.030Z,9.00
2018-02-13T20:22:23.690Z,9.23
2018-02-13T20:24:51.742Z,9.25
2018-02-13T20:27:20.765Z,9.55
2018-02-13T20:29:55.610Z,8.32
2018-02-13T20:32:24.406Z,8.40
2018-02-13T20:34:53.374Z,9.85
2018-02-13T20:37:23.393Z,9.77
2018-02-13T20:40:05.466Z,10.50
2018-02-13T20:42:36.754Z,11.27
2018-02-13T20:45:06.529Z,10.63
2018-02-13T20:47:35.610Z,12.77
2018-02-13T20:50:04.670Z,11.15
2018-02-13T20:52:34.475Z,9.30
2018-02-13T20:55:04.141Z,8.73
2018-02-13T20:57:32.203Z,9.70
2018-02-13T21:00:00.226Z,10.75
2018-02-13T21:02:31.118Z,11.93
2018-02-13T21:04:59.161Z,11.60
2018-02-13T21:07:31.386Z,10.70
2018-02-13T21:10:02.805Z,10.65
2018-02-13T21:12:32.869Z,12.00
2018-02-13T21:15:02.878Z,13.75
2018-02-13T21:17:30.998Z,11.90
2018-02-13T21:20:00.118Z,10.60
2018-02-13T21:22:30.218Z,11.05
2018-02-13T21:24:58.301Z,10.50
2018-02-13T21:27:27.260Z,11.15
2018-02-13T21:29:57.315Z,13.60
2018-02-13T21:32:26.158Z,11.48
2018-02-13T21:34:56.586Z,9.73
2018-02-13T21:37:26.597Z,10.95
2018-02-13T21:39:54.667Z,10.50
2018-02-13T21:42:22.693Z,12.95
2018-02-13T21:44:51.873Z,10.23
2018-02-13T21:47:26.676Z,10.85
2018-02-13T21:49:55.799Z,11.65
2018-02-13T21:52:23.837Z,10.57
2018-02-13T21:54:52.921Z,10.30
2018-02-13T21:57:21.101Z,10.00
2018-02-13T21:59:54.541Z,9.35
2018-02-13T22:02:24.597Z,10.23
2018-02-13T22:04:59.042Z,10.05
2018-02-13T22:07:34.499Z,10.40
2018-02-13T22:10:08.965Z,11.35
2018-02-13T22:12:37.781Z,10.77
2018-02-13T22:15:07.649Z,9.75
2018-02-13T22:17:42.093Z,11.07
2018-02-13T22:20:12.657Z,11.90
2018-02-13T22:22:44.435Z,11.20
2018-02-13T22:25:12.467Z,9.65
2018-02-13T22:27:42.521Z,7.93
2018-02-13T22:30:11.498Z,8.95
2018-02-13T22:32:53.729Z,7.95
2018-02-13T22:35:23.009Z,8.10
2018-02-13T22:37:55.277Z,8.85
2018-02-13T22:40:26.769Z,9.65
2018-02-13T22:43:06.245Z,10.02
2018-02-13T22:45:36.317Z,11.10
2018-02-13T22:48:10.034Z,10.52
2018-02-13T22:50:39.864Z,8.73
2018-02-13T22:53:07.985Z,8.90
2018-02-13T22:55:40.169Z,8.32
2018-02-13T22:58:08.381Z,10.32
2018-02-13T23:00:40.624Z,11.75
2018-02-13T23:03:09.785Z,9.57
2018-02-13T23:05:40.961Z,9.65
2018-02-13T23:08:14.565Z,8.73
2018-02-13T23:10:45.284Z,10.75
2018-02-13T23:13:15.981Z,9.80
2018-02-13T23:15:46.825Z,8.48
2018-02-13T23:18:15.456Z,9.50
2018-02-13T23:20:45.389Z,10.60
2018-02-13T23:23:14.905Z,10.38
2018-02-13T23:25:44.919Z,11.88
2018-02-13T23:28:18.281Z,11.57
2018-02-13T23:30:46.362Z,9.68
2018-02-13T23:33:14.420Z,12.15
2018-02-13T23:35:49.873Z,10.38
2018-02-13T23:38:17.940Z,10.95
2018-02-13T23:40:46.972Z,9.43
2018-02-13T23:43:15.009Z,9.60
2018-02-13T23:45:50.114Z,12.02
2018-02-13T23:48:22.005Z,10.55
2018-02-13T23:50:52.053Z,10.45
2018-02-13T23:53:21.180Z,9.13
2018-02-13T23:55:53.957Z,10.23
2018-02-13T23:58:22.089Z,10.02
